Time;durP1;ratioP1;P1;durP2;ratioP2;P2;SDS_P1;SDS_P2;PMS_P1;PMS_P2;Temp;Humidity;BMP_temperature;BMP_pressure;BME280_temperature;BME280_humidity;BME280_pressure;Samples;Min_cycle;Max_cycle;Signal;HPM_P1;HPM_P2
2023/01/19 00:00:57;;;;;;;13.30;7.55;;;;;;;2.07;100.00;99863.91;2614577;36;20420;-58
2023/01/19 00:03:27;;;;;;;14.30;7.10;;;;;;;2.11;100.00;99860.09;2613274;36;20432;-56
2023/01/19 00:05:55;;;;;;;16.52;8.35;;;;;;;2.20;100.00;99863.91;2614659;31;20030;-56
2023/01/19 00:08:24;;;;;;;16.15;7.40;;;;;;;2.30;100.00;99864.09;2613586;36;20042;-56
2023/01/19 00:10:52;;;;;;;17.27;8.57;;;;;;;2.20;100.00;99858.59;2614445;36;20560;-57
2023/01/19 00:13:21;;;;;;;13.48;8.38;;;;;;;2.26;100.00;99858.16;2613602;36;20045;-57
2023/01/19 00:15:52;;;;;;;15.43;9.43;;;;;;;2.30;100.00;99853.47;2613816;36;20039;-57
2023/01/19 00:18:21;;;;;;;15.57;8.48;;;;;;;2.28;100.00;99853.56;2613582;36;20420;-58
2023/01/19 00:20:50;;;;;;;19.45;9.38;;;;;;;2.27;100.00;99854.56;2613468;31;20721;-57
2023/01/19 00:23:19;;;;;;;17.63;8.80;;;;;;;2.32;100.00;99857.72;2614228;36;20042;-58
2023/01/19 00:25:49;;;;;;;16.95;8.68;;;;;;;2.45;100.00;99855.88;2613850;36;20042;-58
2023/01/19 00:28:19;;;;;;;15.68;7.07;;;;;;;2.49;100.00;99863.63;2612930;36;20037;-58
2023/01/19 00:30:48;;;;;;;15.38;7.63;;;;;;;2.43;100.00;99865.78;2614809;36;20042;-58
2023/01/19 00:33:19;;;;;;;11.65;6.78;;;;;;;2.39;100.00;99859.00;2614202;36;20035;-59
2023/01/19 00:35:52;;;;;;;9.95;5.80;;;;;;;2.34;100.00;99855.81;2615365;36;20042;-59
2023/01/19 00:38:20;;;;;;;9.40;4.90;;;;;;;2.39;100.00;99860.81;2615924;36;20045;-59
2023/01/19 00:40:51;;;;;;;7.70;4.03;;;;;;;2.27;100.00;99858.03;2616172;36;20033;-58
2023/01/19 00:43:19;;;;;;;5.43;3.00;;;;;;;2.30;100.00;99864.09;2615332;31;20035;-59
2023/01/19 00:45:48;;;;;;;5.68;3.35;;;;;;;2.34;100.00;99861.13;2615736;36;20111;-58
2023/01/19 00:48:19;;;;;;;7.82;3.40;;;;;;;2.36;100.00;99858.38;2614766;36;20275;-58
2023/01/19 00:50:47;;;;;;;5.05;2.25;;;;;;;2.18;100.00;99857.84;2615866;36;20026;-58
2023/01/19 00:53:16;;;;;;;5.15;2.50;;;;;;;2.17;100.00;99864.13;2617370;36;20483;-58
2023/01/19 00:55:44;;;;;;;5.93;2.35;;;;;;;2.04;100.00;99864.94;2616280;36;20547;-58
2023/01/19 00:58:12;;;;;;;7.82;2.42;;;;;;;2.25;100.00;99864.41;2615997;36;20034;-58
2023/01/19 01:00:41;;;;;;;6.03;2.22;;;;;;;2.30;100.00;99864.97;2615240;36;20117;-58
2023/01/19 01:03:09;;;;;;;3.00;1.77;;;;;;;2.32;100.00;99865.69;2614147;36;20042;-58
2023/01/19 01:05:42;;;;;;;7.00;1.95;;;;;;;2.45;100.00;99858.53;2614544;36;20037;-58
2023/01/19 01:08:10;;;;;;;4.45;1.92;;;;;;;2.48;100.00;99859.31;2616301;31;20030;-58
2023/01/19 01:10:39;;;;;;;2.88;1.67;;;;;;;2.53;100.00;99859.81;2615457;36;20038;-58
2023/01/19 01:13:07;;;;;;;7.50;2.28;;;;;;;2.56;100.00;99859.59;2613187;36;20038;-58
2023/01/19 01:15:36;;;;;;;3.97;1.73;;;;;;;2.61;100.00;99862.78;2615462;36;20042;-58
2023/01/19 01:18:04;;;;;;;3.63;1.70;;;;;;;2.71;100.00;99863.81;2613679;36;20049;-58
2023/01/19 01:20:33;;;;;;;2.58;1.50;;;;;;;2.69;100.00;99859.56;2615235;36;20037;-58
2023/01/19 01:23:04;;;;;;;3.15;1.67;;;;;;;2.74;100.00;99862.72;2615413;36;20038;-58
2023/01/19 01:25:36;;;;;;;7.60;2.50;;;;;;;2.81;100.00;99864.00;2615588;36;20038;-57
2023/01/19 01:28:05;;;;;;;4.82;2.53;;;;;;;2.79;100.00;99872.06;2614859;36;20046;-58
2023/01/19 01:30:34;;;;;;;5.38;2.90;;;;;;;2.73;100.00;99875.19;2615302;36;20575;-58
2023/01/19 01:33:02;;;;;;;8.85;3.85;;;;;;;2.63;100.00;99874.13;2615967;36;20038;-58
2023/01/19 01:35:32;;;;;;;9.87;3.77;;;;;;;2.70;100.00;99878.06;2616518;31;20038;-58
2023/01/19 01:38:03;;;;;;;7.80;4.43;;;;;;;2.71;100.00;99885.06;2616347;36;20133;-58
2023/01/19 01:40:32;;;;;;;7.47;4.57;;;;;;;2.52;100.00;99879.34;2616201;36;20030;-58
2023/01/19 01:43:01;;;;;;;7.18;3.97;;;;;;;2.46;100.00;99888.63;2615465;36;20030;-58
2023/01/19 01:45:33;;;;;;;7.30;4.32;;;;;;;2.49;100.00;99891.06;2616382;36;20042;-58
2023/01/19 01:48:07;;;;;;;8.15;4.60;;;;;;;2.54;100.00;99888.09;2616234;31;20053;-58
2023/01/19 01:51:22;;;;;;;7.90;4.18;;;;;;;2.33;100.00;99901.91;2615848;36;20038;-58
2023/01/19 01:53:31;;;;;;;6.45;4.53;;;;;;;2.17;100.00;99899.47;2615176;36;20110;-57
2023/01/19 01:56:01;;;;;;;5.72;3.58;;;;;;;2.05;100.00;99892.38;2616009;31;20038;-57
2023/01/19 01:58:30;;;;;;;7.10;4.18;;;;;;;1.87;100.00;99894.44;2614493;36;20546;-58
2023/01/19 02:03:39;;;;;;;7.70;4.85;;;;;;;1.85;100.00;99885.75;2615617;36;20065;-57
2023/01/19 02:06:09;;;;;;;8.63;5.27;;;;;;;1.88;100.00;99890.84;2614872;36;20034;-58
2023/01/19 02:14:08;;;;;;;11.43;5.15;;;;;;;1.73;100.00;99876.81;2615549;31;20615;-56
2023/01/19 02:16:37;;;;;;;8.80;4.90;;;;;;;1.63;100.00;99881.03;2615893;36;20038;-56
2023/01/19 02:19:07;;;;;;;6.57;4.70;;;;;;;1.68;100.00;99892.19;2616138;31;20038;-56
2023/01/19 02:21:42;;;;;;;8.63;5.13;;;;;;;1.75;100.00;99881.09;2616093;36;20064;-57
2023/01/19 02:24:13;;;;;;;8.52;4.85;;;;;;;1.79;100.00;99894.13;2616361;36;20038;-57
2023/01/19 02:26:44;;;;;;;13.75;4.75;;;;;;;1.70;100.00;99882.34;2615835;36;20030;-57
2023/01/19 02:29:14;;;;;;;8.05;5.22;;;;;;;1.57;100.00;99890.25;2614316;36;20026;-58
2023/01/19 02:31:44;;;;;;;8.90;5.38;;;;;;;1.77;100.00;99888.06;2616143;36;20045;-57
2023/01/19 02:34:16;;;;;;;10.02;6.55;;;;;;;1.85;100.00;99891.06;2615920;36;20037;-56
2023/01/19 02:36:51;;;;;;;11.90;6.40;;;;;;;1.66;100.00;99894.09;2615640;36;20122;-56
2023/01/19 02:39:28;;;;;;;12.30;7.05;;;;;;;1.72;100.00;99899.84;2615443;36;20035;-56
2023/01/19 02:42:02;;;;;;;8.90;5.05;;;;;;;1.93;100.00;99900.19;2615472;36;20026;-55
2023/01/19 02:44:32;;;;;;;6.55;2.00;;;;;;;2.16;100.00;99912.84;2615473;31;20038;-54
2023/01/19 02:47:01;;;;;;;4.40;1.08;;;;;;;2.49;100.00;99911.44;2616602;31;20419;-51
2023/01/19 02:49:30;;;;;;;5.35;1.08;;;;;;;2.77;100.00;99908.56;2616253;36;20038;-54
2023/01/19 02:51:59;;;;;;;;;;;;;;;2.99;100.00;99920.31;2616215;36;20122;-55
2023/01/19 02:54:44;;;;;;;7.00;0.57;;;;;;;3.12;100.00;99915.78;2615964;36;19980;-54
2023/01/19 02:57:28;;;;;;;2.65;0.70;;;;;;;3.23;100.00;99916.81;2615802;36;20031;-53
2023/01/19 03:00:09;;;;;;;8.05;1.17;;;;;;;3.36;100.00;99917.63;2615589;36;20354;-56
2023/01/19 03:02:49;;;;;;;6.22;0.75;;;;;;;3.41;100.00;99909.28;2615816;36;20144;-55
2023/01/19 03:05:32;;;;;;;5.10;1.35;;;;;;;3.46;100.00;99918.63;2616471;36;20085;-56
2023/01/19 03:08:10;;;;;;;5.07;0.85;;;;;;;3.57;100.00;99917.81;2616303;36;20065;-55
2023/01/19 03:10:53;;;;;;;6.32;1.20;;;;;;;3.55;100.00;99924.22;2615863;36;20034;-54
2023/01/19 03:13:28;;;;;;;12.45;1.90;;;;;;;3.70;100.00;99930.25;2615183;31;20041;-55
2023/01/19 03:16:02;;;;;;;6.82;1.02;;;;;;;3.67;100.00;99941.94;2616317;36;20034;-57
2023/01/19 03:18:33;;;;;;;6.35;1.30;;;;;;;3.71;100.00;99934.56;2615382;36;20166;-56
2023/01/19 03:21:07;;;;;;;7.70;1.40;;;;;;;3.78;100.00;99933.16;2615684;36;20986;-57
2023/01/19 03:23:37;;;;;;;8.43;0.90;;;;;;;3.82;100.00;99934.63;2616898;36;20443;-57
2023/01/19 03:26:12;;;;;;;6.85;1.13;;;;;;;3.77;100.00;99921.66;2615594;36;20118;-58
2023/01/19 03:28:43;;;;;;;3.53;1.30;;;;;;;3.74;100.00;99916.56;2615684;36;20046;-57
2023/01/19 03:31:16;;;;;;;7.13;1.40;;;;;;;3.77;100.00;99929.66;2615556;36;20031;-58
2023/01/19 03:33:49;;;;;;;11.35;2.10;;;;;;;3.75;100.00;99925.41;2615385;36;20031;-59
2023/01/19 03:36:23;;;;;;;5.50;1.40;;;;;;;3.82;100.00;99927.47;2615940;31;20129;-59
2023/01/19 03:38:53;;;;;;;3.80;0.85;;;;;;;3.90;100.00;99926.06;2615868;36;20026;-59
2023/01/19 03:41:26;;;;;;;4.00;0.88;;;;;;;3.83;100.00;99926.53;2615190;36;20042;-59
2023/01/19 03:43:58;;;;;;;9.10;1.23;;;;;;;3.90;100.00;99931.38;2616058;36;20034;-59
2023/01/19 03:46:28;;;;;;;3.17;0.98;;;;;;;3.91;100.00;99933.09;2616074;36;20026;-59
2023/01/19 03:48:59;;;;;;;5.32;1.27;;;;;;;3.91;100.00;99938.41;2615578;31;20022;-61
2023/01/19 03:51:27;;;;;;;8.43;0.82;;;;;;;3.84;100.00;99936.22;2615599;36;20043;-60
2023/01/19 03:53:55;;;;;;;11.00;1.70;;;;;;;3.98;100.00;99931.66;2616200;36;20042;-59
2023/01/19 03:56:27;;;;;;;5.57;0.93;;;;;;;4.01;100.00;99936.75;2615432;31;20042;-59
2023/01/19 03:58:55;;;;;;;3.70;1.27;;;;;;;3.99;100.00;99936.88;2616165;36;20027;-60
2023/01/19 04:01:24;;;;;;;2.70;0.65;;;;;;;3.96;100.00;99941.56;2615514;36;20034;-59
2023/01/19 04:03:53;;;;;;;10.05;2.15;;;;;;;3.91;100.00;99949.91;2615716;36;20082;-59
2023/01/19 04:06:22;;;;;;;5.63;0.90;;;;;;;3.85;100.00;99947.69;2615826;36;20034;-60
2023/01/19 04:08:52;;;;;;;4.47;1.00;;;;;;;3.89;100.00;99950.97;2616245;36;20038;-60
2023/01/19 04:11:21;;;;;;;5.28;1.00;;;;;;;3.90;100.00;99955.34;2615987;36;20161;-60
2023/01/19 04:13:51;;;;;;;4.07;0.77;;;;;;;3.84;100.00;99959.31;2616666;36;20057;-60
2023/01/19 04:16:20;;;;;;;5.78;1.13;;;;;;;3.85;100.00;99966.34;2616641;31;20030;-59
2023/01/19 04:18:51;;;;;;;3.72;1.00;;;;;;;3.86;100.00;99976.03;2615997;36;20038;-59
2023/01/19 04:21:19;;;;;;;5.45;1.00;;;;;;;3.82;100.00;99978.06;2616512;36;20026;-59
2023/01/19 04:23:48;;;;;;;7.47;1.00;;;;;;;3.88;100.00;99982.06;2616572;36;20038;-59
2023/01/19 04:26:17;;;;;;;12.95;1.23;;;;;;;3.92;100.00;99983.53;2616142;36;20057;-59
2023/01/19 04:28:45;;;;;;;13.45;1.67;;;;;;;3.86;100.00;99984.84;2616983;36;20041;-59
2023/01/19 04:31:18;;;;;;;11.43;1.20;;;;;;;3.93;100.00;99989.72;2616985;36;20022;-59
2023/01/19 04:33:46;;;;;;;7.35;1.17;;;;;;;4.01;100.00;99997.97;2615166;36;20069;-59
2023/01/19 04:36:14;;;;;;;9.30;1.20;;;;;;;3.92;100.00;99990.69;2616269;31;20035;-59
2023/01/19 04:38:43;;;;;;;5.22;1.50;;;;;;;3.80;100.00;100006.59;2616432;36;20038;-59
2023/01/19 04:41:11;;;;;;;4.77;1.23;;;;;;;3.80;100.00;100000.44;2616263;36;20103;-59
2023/01/19 04:43:39;;;;;;;8.13;1.83;;;;;;;3.68;100.00;99999.50;2616150;36;20026;-59
2023/01/19 04:46:08;;;;;;;6.32;1.30;;;;;;;3.68;100.00;100007.50;2616601;36;20049;-59
2023/01/19 04:48:39;;;;;;;8.70;1.42;;;;;;;3.76;100.00;99999.81;2634224;36;20031;-59
2023/01/19 04:51:10;;;;;;;10.23;1.27;;;;;;;3.76;100.00;100007.78;2616406;36;20042;-59
2023/01/19 04:53:39;;;;;;;8.25;2.50;;;;;;;3.63;100.00;99999.84;2616588;36;20026;-59
2023/01/19 04:56:07;;;;;;;11.55;1.63;;;;;;;3.64;100.00;100001.56;2615666;36;20042;-59
2023/01/19 04:58:36;;;;;;;6.75;1.40;;;;;;;3.67;100.00;100011.16;2616566;36;20026;-59
2023/01/19 05:01:09;;;;;;;3.58;0.80;;;;;;;3.72;100.00;100008.97;2617476;36;20443;-59
2023/01/19 05:03:40;;;;;;;7.32;1.10;;;;;;;3.67;100.00;100005.81;2615989;36;20046;-59
2023/01/19 05:06:08;;;;;;;10.48;1.52;;;;;;;3.65;100.00;100015.72;2615573;36;20064;-59
2023/01/19 05:08:37;;;;;;;6.97;1.17;;;;;;;3.61;100.00;100007.13;2616417;36;20038;-59
2023/01/19 05:11:05;;;;;;;6.13;1.83;;;;;;;3.65;100.00;100013.91;2616204;36;20035;-59
2023/01/19 05:13:34;;;;;;;8.20;1.17;;;;;;;3.66;100.00;100015.59;2617122;36;20471;-59
2023/01/19 05:16:03;;;;;;;8.30;1.40;;;;;;;3.71;100.00;100017.94;2616756;36;20093;-58
2023/01/19 05:18:34;;;;;;;10.63;1.42;;;;;;;3.57;100.00;100021.59;2615503;36;20034;-60
2023/01/19 05:21:06;;;;;;;6.50;1.20;;;;;;;3.56;100.00;100019.03;2616442;36;20563;-59
2023/01/19 05:23:34;;;;;;;5.90;1.13;;;;;;;3.66;100.00;100025.41;2616777;36;20030;-59
2023/01/19 05:26:04;;;;;;;4.68;1.30;;;;;;;3.64;100.00;100032.66;2616197;36;20034;-59
2023/01/19 05:28:34;;;;;;;12.75;1.90;;;;;;;3.68;100.00;100044.75;2616294;36;20033;-59
2023/01/19 05:31:03;;;;;;;8.43;1.40;;;;;;;3.65;100.00;100045.84;2616270;36;20593;-59
2023/01/19 05:33:31;;;;;;;5.93;1.25;;;;;;;3.56;100.00;100053.63;2616065;36;20069;-59
2023/01/19 05:36:00;;;;;;;5.88;1.52;;;;;;;3.64;100.00;100043.31;2616305;36;20162;-59
2023/01/19 05:38:31;;;;;;;8.10;1.42;;;;;;;3.60;100.00;100057.78;2616772;31;20038;-60
2023/01/19 05:40:59;;;;;;;12.82;1.58;;;;;;;3.53;100.00;100053.88;2615979;31;20041;-59
2023/01/19 05:43:28;;;;;;;7.90;1.35;;;;;;;3.61;100.00;100062.16;2616151;36;20038;-59
2023/01/19 05:45:56;;;;;;;8.82;1.10;;;;;;;3.55;100.00;100065.22;2616667;36;20069;-59
2023/01/19 05:48:24;;;;;;;9.00;1.45;;;;;;;3.41;100.00;100058.25;2615871;36;20037;-59
2023/01/19 05:50:53;;;;;;;9.20;1.92;;;;;;;3.55;100.00;100060.78;2616771;31;20023;-60
2023/01/19 05:53:22;;;;;;;6.93;1.50;;;;;;;3.48;100.00;100060.34;2616402;36;20037;-59
2023/01/19 05:55:52;;;;;;;13.88;1.80;;;;;;;3.40;100.00;100065.41;2615665;36;20041;-59
2023/01/19 05:58:21;;;;;;;7.57;1.60;;;;;;;3.39;100.00;100071.66;2616038;31;20657;-59
2023/01/19 06:00:49;;;;;;;11.73;1.42;;;;;;;3.42;100.00;100073.28;2615948;31;20045;-59
2023/01/19 06:03:17;;;;;;;11.10;1.83;;;;;;;3.39;100.00;100079.66;2615991;36;20852;-59
2023/01/19 06:05:46;;;;;;;11.40;1.77;;;;;;;3.27;100.00;100070.72;2615850;36;20041;-59
2023/01/19 06:08:14;;;;;;;12.43;1.67;;;;;;;3.36;100.00;100074.56;2616385;36;20030;-59
2023/01/19 06:10:42;;;;;;;12.88;1.77;;;;;;;3.39;100.00;100082.31;2615879;36;20037;-59
2023/01/19 06:13:13;;;;;;;11.02;2.03;;;;;;;3.33;100.00;100082.75;2615999;36;20039;-59
2023/01/19 06:15:42;;;;;;;14.45;2.20;;;;;;;3.37;100.00;100081.56;2616759;36;20551;-59
2023/01/19 06:18:11;;;;;;;11.57;3.20;;;;;;;3.44;100.00;100089.97;2615824;36;20054;-59
2023/01/19 06:20:39;;;;;;;14.55;2.38;;;;;;;3.45;100.00;100097.81;2615535;36;20086;-59
2023/01/19 06:23:09;;;;;;;10.15;1.88;;;;;;;3.57;100.00;100101.41;2617292;31;20876;-59
2023/01/19 06:25:38;;;;;;;10.63;1.52;;;;;;;3.72;100.00;100098.63;2615588;36;20170;-59
2023/01/19 06:28:06;;;;;;;10.73;1.88;;;;;;;3.78;100.00;100106.16;2616309;36;20628;-59
2023/01/19 06:30:37;;;;;;;10.38;2.00;;;;;;;3.77;100.00;100102.66;2615070;36;20066;-60
2023/01/19 06:33:06;;;;;;;14.50;2.33;;;;;;;3.84;100.00;100114.56;2615601;36;20134;-59
2023/01/19 06:35:34;;;;;;;17.65;3.28;;;;;;;3.93;100.00;100129.03;2615757;36;20049;-59
2023/01/19 06:38:03;;;;;;;17.15;1.90;;;;;;;4.01;100.00;100126.63;2617415;31;20693;-60
2023/01/19 06:40:31;;;;;;;12.02;1.88;;;;;;;4.07;100.00;100125.34;2615996;36;20031;-59
2023/01/19 06:42:59;;;;;;;9.73;1.50;;;;;;;4.12;100.00;100132.97;2615440;36;20030;-59
2023/01/19 06:45:27;;;;;;;12.18;1.85;;;;;;;4.16;100.00;100135.31;2616363;36;20034;-59
2023/01/19 06:47:58;;;;;;;12.93;2.47;;;;;;;4.27;100.00;100136.34;2615810;36;20463;-60
2023/01/19 06:50:27;;;;;;;9.65;1.58;;;;;;;4.37;100.00;100143.53;2615788;36;20023;-59
2023/01/19 06:52:55;;;;;;;9.00;1.83;;;;;;;4.48;100.00;100142.75;2616236;36;20026;-59
2023/01/19 06:55:23;;;;;;;13.35;1.95;;;;;;;4.35;100.00;100150.78;2616266;36;20034;-59
2023/01/19 06:57:58;;;;;;;7.35;1.60;;;;;;;4.26;100.00;100145.31;2616874;31;20054;-59
2023/01/19 07:00:28;;;;;;;12.85;1.83;;;;;;;4.31;100.00;100151.13;2616858;31;20123;-59
2023/01/19 07:02:59;;;;;;;;;;;;;;;4.48;100.00;100161.38;2615772;36;20031;-59
2023/01/19 07:05:27;;;;;;;8.85;1.75;;;;;;;4.38;100.00;100158.53;2615647;31;19947;-59
2023/01/19 07:07:56;;;;;;;6.78;1.70;;;;;;;4.39;100.00;100172.75;2615974;36;20034;-59
2023/01/19 07:10:25;;;;;;;8.05;2.10;;;;;;;4.31;100.00;100180.44;2615751;31;20471;-60
2023/01/19 07:12:53;;;;;;;13.25;2.72;;;;;;;4.39;100.00;100178.06;2615357;36;20034;-59
2023/01/19 07:15:22;;;;;;;11.52;2.08;;;;;;;4.46;100.00;100186.44;2616209;36;20034;-59
2023/01/19 07:17:50;;;;;;;10.73;1.70;;;;;;;4.37;100.00;100179.97;2615971;36;20062;-59
2023/01/19 07:20:21;;;;;;;10.55;1.80;;;;;;;4.47;100.00;100186.31;2615356;36;20042;-59
2023/01/19 07:22:57;;;;;;;11.00;1.73;;;;;;;4.40;100.00;100187.75;2615878;36;20099;-59
2023/01/19 07:25:25;;;;;;;8.30;1.83;;;;;;;4.42;100.00;100199.16;2615878;31;20413;-59
2023/01/19 07:27:54;;;;;;;7.95;1.75;;;;;;;4.33;100.00;100199.84;2616207;36;20073;-59
2023/01/19 07:30:22;;;;;;;12.30;2.80;;;;;;;4.33;100.00;100203.34;2615594;36;20030;-59
2023/01/19 07:32:51;;;;;;;15.87;2.47;;;;;;;4.29;100.00;100211.69;2616054;36;20050;-58
2023/01/19 07:35:21;;;;;;;10.35;2.10;;;;;;;4.36;100.00;100215.59;2612817;36;20303;-59
2023/01/19 07:37:50;;;;;;;14.20;1.55;;;;;;;4.38;100.00;100225.16;2609770;36;20837;-61
2023/01/19 07:40:19;;;;;;;11.67;1.83;;;;;;;4.33;100.00;100210.50;2615198;36;20038;-59
2023/01/19 07:42:50;;;;;;;13.00;2.43;;;;;;;4.29;100.00;100230.31;2615808;36;20271;-59
2023/01/19 07:45:19;;;;;;;13.25;1.60;;;;;;;4.30;100.00;100229.34;2615458;31;20337;-59
2023/01/19 07:47:49;;;;;;;9.52;1.90;;;;;;;4.35;100.00;100230.72;2616424;36;20037;-59
2023/01/19 07:50:24;;;;;;;13.10;1.88;;;;;;;4.35;100.00;100240.53;2615250;36;20022;-58
2023/01/19 07:52:52;;;;;;;16.70;1.50;;;;;;;4.32;100.00;100246.91;2616708;36;20133;-58
2023/01/19 07:55:22;;;;;;;10.13;1.53;;;;;;;4.28;100.00;100253.44;2616227;31;20034;-58
2023/01/19 07:57:51;;;;;;;11.90;1.65;;;;;;;4.34;100.00;100260.13;2615550;36;20061;-59
2023/01/19 08:00:23;;;;;;;7.10;2.30;;;;;;;4.29;100.00;100260.47;2617005;31;20443;-59
2023/01/19 08:02:53;;;;;;;14.23;1.95;;;;;;;4.21;100.00;100260.16;2617021;31;20517;-60
2023/01/19 08:05:24;;;;;;;7.30;1.50;;;;;;;4.15;100.00;100266.78;2615527;36;20045;-59
2023/01/19 08:07:52;;;;;;;8.88;1.33;;;;;;;4.18;100.00;100266.56;2616727;36;20038;-60
2023/01/19 08:10:24;;;;;;;6.22;1.58;;;;;;;4.12;100.00;100276.78;2615511;36;20029;-59
2023/01/19 08:12:52;;;;;;;13.35;1.83;;;;;;;3.90;100.00;100281.00;2616548;36;20045;-59
2023/01/19 08:15:22;;;;;;;7.00;1.35;;;;;;;3.85;100.00;100286.63;2616579;36;20034;-60
2023/01/19 08:17:56;;;;;;;8.30;1.45;;;;;;;3.84;100.00;100298.25;2616140;36;20154;-60
2023/01/19 08:20:29;;;;;;;11.23;1.60;;;;;;;3.86;100.00;100293.66;2613953;36;20037;-59
2023/01/19 08:22:58;;;;;;;16.77;1.55;;;;;;;3.89;100.00;100297.03;2614282;36;20027;-60
2023/01/19 08:25:28;;;;;;;8.15;1.50;;;;;;;3.88;100.00;100306.03;2615017;36;20045;-60
2023/01/19 08:27:58;;;;;;;11.80;1.73;;;;;;;3.83;100.00;100309.84;2616094;31;20054;-60
2023/01/19 08:30:26;;;;;;;;;;;;;;;3.78;100.00;100316.44;2615650;36;20554;-60
2023/01/19 08:33:02;;;;;;;6.82;1.17;;;;;;;3.71;100.00;100316.03;2615158;36;20054;-60
2023/01/19 08:35:33;;;;;;;8.05;1.83;;;;;;;3.66;100.00;100326.97;2614958;36;20022;-59
2023/01/19 08:38:02;;;;;;;11.18;1.83;;;;;;;3.56;100.00;100325.88;2616091;36;20027;-60
2023/01/19 08:40:32;;;;;;;7.78;1.50;;;;;;;3.50;100.00;100321.84;2614147;36;20488;-60
2023/01/19 08:43:03;;;;;;;13.68;2.15;;;;;;;3.40;100.00;100325.22;2615461;36;21654;-60
2023/01/19 08:45:32;;;;;;;7.82;1.40;;;;;;;3.48;100.00;100326.41;2614085;31;20556;-59
2023/01/19 08:48:00;;;;;;;11.43;2.25;;;;;;;3.38;100.00;100338.63;2614562;36;20126;-60
2023/01/19 08:50:30;;;;;;;9.90;1.42;;;;;;;3.33;100.00;100332.78;2615072;36;20066;-60
2023/01/19 08:53:03;;;;;;;7.47;1.75;;;;;;;3.31;100.00;100340.84;2615247;36;20026;-59
2023/01/19 08:55:32;;;;;;;11.32;1.92;;;;;;;3.27;100.00;100349.16;2614161;36;20434;-60
2023/01/19 08:58:02;;;;;;;12.27;2.05;;;;;;;3.16;100.00;100347.19;2615292;36;20543;-60
2023/01/19 09:00:32;;;;;;;9.75;1.60;;;;;;;3.19;100.00;100344.31;2632620;31;20038;-59
2023/01/19 09:03:02;;;;;;;10.57;1.98;;;;;;;3.28;100.00;100350.84;2615391;36;20046;-60
2023/01/19 09:05:34;;;;;;;10.65;1.90;;;;;;;3.39;100.00;100348.31;2615820;36;20038;-59
2023/01/19 09:08:07;;;;;;;10.75;2.38;;;;;;;3.39;100.00;100353.66;2616429;36;20035;-60
2023/01/19 09:10:39;;;;;;;16.02;2.42;;;;;;;3.51;100.00;100357.28;2617004;31;20042;-60
2023/01/19 09:13:39;;;;;;;11.60;2.13;;;;;;;3.61;100.00;100362.84;2619519;36;20105;-59
2023/01/19 09:16:10;;;;;;;9.65;2.10;;;;;;;3.74;100.00;100366.38;2620359;36;20045;-58
2023/01/19 09:18:41;;;;;;;12.45;2.15;;;;;;;3.73;100.00;100364.66;2619861;36;20531;-59
2023/01/19 09:21:11;;;;;;;9.30;2.87;;;;;;;3.98;100.00;100370.97;2619218;36;20077;-58
2023/01/19 09:23:39;;;;;;;10.98;2.35;;;;;;;3.94;100.00;100380.13;2619634;31;20318;-58
2023/01/19 09:26:08;;;;;;;8.15;2.10;;;;;;;3.90;100.00;100379.50;2619508;36;20069;-58
2023/01/19 09:28:40;;;;;;;14.83;3.37;;;;;;;3.95;100.00;100382.69;2621137;36;20423;-59
2023/01/19 09:31:10;;;;;;;14.52;2.67;;;;;;;3.99;100.00;100389.50;2619042;36;20030;-58
2023/01/19 09:33:38;;;;;;;14.52;2.25;;;;;;;4.11;100.00;100377.16;2619573;36;20578;-58
2023/01/19 09:36:07;;;;;;;10.52;2.05;;;;;;;4.10;100.00;100380.78;2619694;36;20045;-58
2023/01/19 09:38:35;;;;;;;11.40;3.05;;;;;;;3.97;100.00;100379.91;2620192;36;20042;-58
2023/01/19 09:41:04;;;;;;;10.15;2.92;;;;;;;4.09;100.00;100384.38;2620016;36;20045;-58
2023/01/19 09:43:44;;;;;;;13.50;2.80;;;;;;;3.96;100.00;100384.41;2619653;36;20046;-59
2023/01/19 09:46:16;;;;;;;9.82;2.08;;;;;;;4.00;100.00;100385.88;2619446;36;20117;-59
2023/01/19 09:48:48;;;;;;;15.77;2.60;;;;;;;4.12;100.00;100394.84;2619930;36;20456;-59
2023/01/19 09:51:23;;;;;;;10.63;1.80;;;;;;;4.13;100.00;100396.53;2619723;36;20034;-58
2023/01/19 09:53:57;;;;;;;13.68;2.88;;;;;;;4.26;100.00;100396.56;2620034;36;20030;-58
2023/01/19 09:56:26;;;;;;;9.85;2.30;;;;;;;4.33;100.00;100389.00;2619308;36;20074;-58
2023/01/19 09:58:57;;;;;;;14.27;1.95;;;;;;;4.28;100.00;100383.13;2620083;36;20034;-59
2023/01/19 10:01:37;;;;;;;12.20;1.60;;;;;;;4.24;100.00;100387.81;2619592;36;20587;-59
2023/01/19 10:04:32;;;;;;;10.25;2.40;;;;;;;4.48;100.00;100389.72;2619858;31;20022;-59
2023/01/19 10:07:17;;;;;;;13.18;2.42;;;;;;;4.61;100.00;100384.34;2619492;36;20569;-59
2023/01/19 10:10:14;;;;;;;9.85;1.98;;;;;;;4.83;100.00;100397.88;2619537;36;20038;-59
2023/01/19 10:12:53;;;;;;;10.30;2.58;;;;;;;4.94;100.00;100391.75;2619660;36;20038;-59
2023/01/19 10:15:34;;;;;;;16.50;2.90;;;;;;;5.00;100.00;100395.78;2619955;36;20038;-59
2023/01/19 10:18:18;;;;;;;8.13;2.05;;;;;;;4.95;100.00;100395.25;2618220;36;20041;-59
2023/01/19 10:20:51;;;;;;;6.68;1.67;;;;;;;4.87;100.00;100395.81;2618858;36;20041;-59
2023/01/19 10:23:36;;;;;;;10.93;2.25;;;;;;;4.91;100.00;100398.16;2619065;36;20026;-59
2023/01/19 10:26:10;;;;;;;9.68;2.65;;;;;;;4.91;100.00;100402.63;2616446;36;20033;-58
2023/01/19 10:31:43;;;;;;;5.18;1.52;;;;;;;5.00;100.00;100395.78;2615257;31;20058;-59
2023/01/19 10:34:17;;;;;;;6.05;1.05;;;;;;;4.90;100.00;100396.47;2615931;36;20026;-59
2023/01/19 10:36:48;;;;;;;7.10;1.83;;;;;;;5.05;100.00;100397.16;2615924;36;20026;-59
2023/01/19 10:39:18;;;;;;;6.18;1.60;;;;;;;5.07;100.00;100402.38;2616671;36;20057;-59
2023/01/19 10:41:52;;;;;;;7.00;1.67;;;;;;;5.15;100.00;100404.47;2616416;36;20045;-59
2023/01/19 10:44:26;;;;;;;9.45;1.83;;;;;;;5.19;100.00;100409.47;2616763;36;20030;-58
2023/01/19 10:47:00;;;;;;;8.70;1.35;;;;;;;5.18;100.00;100402.47;2634384;36;20038;-58
2023/01/19 10:49:31;;;;;;;5.60;1.50;;;;;;;5.17;100.00;100403.41;2614843;36;20503;-58
2023/01/19 10:52:01;;;;;;;7.32;1.80;;;;;;;5.32;100.00;100400.59;2615526;36;20475;-58
2023/01/19 10:54:33;;;;;;;8.93;1.67;;;;;;;5.46;100.00;100403.06;2614904;36;20034;-59
2023/01/19 10:57:04;;;;;;;9.60;1.50;;;;;;;5.56;100.00;100397.88;2615884;36;20122;-59
2023/01/19 10:59:36;;;;;;;7.55;1.45;;;;;;;5.58;100.00;100402.16;2615835;36;20065;-59
2023/01/19 11:02:17;;;;;;;6.55;1.60;;;;;;;5.42;100.00;100405.13;2616093;31;20435;-59
2023/01/19 11:04:47;;;;;;;5.18;1.85;;;;;;;5.47;100.00;100404.75;2616240;31;20607;-60
2023/01/19 11:07:20;;;;;;;10.20;1.65;;;;;;;5.43;100.00;100404.16;2615101;31;20540;-58
2023/01/19 11:09:48;;;;;;;2.45;0.82;;;;;;;5.41;100.00;100406.06;2615686;31;20038;-59
2023/01/19 11:12:22;;;;;;;4.80;1.20;;;;;;;5.56;100.00;100404.06;2616196;34;20034;-58
2023/01/19 11:14:53;;;;;;;5.45;1.17;;;;;;;5.59;100.00;100408.34;2615877;36;20057;-59
2023/01/19 11:17:30;;;;;;;4.97;1.25;;;;;;;5.56;100.00;100412.06;2616112;36;20038;-59
2023/01/19 11:20:01;;;;;;;4.68;1.52;;;;;;;5.58;100.00;100417.31;2616133;36;20535;-59
2023/01/19 11:22:33;;;;;;;4.55;1.30;;;;;;;5.50;100.00;100409.88;2616736;31;20034;-59
2023/01/19 11:25:06;;;;;;;4.45;1.08;;;;;;;5.60;100.00;100410.88;2615909;36;20121;-58
2023/01/19 11:27:38;;;;;;;4.53;1.23;;;;;;;5.64;100.00;100416.88;2616512;36;20065;-58
2023/01/19 11:30:18;;;;;;;9.25;1.85;;;;;;;5.59;100.00;100406.53;2615881;36;20045;-59
2023/01/19 11:32:49;;;;;;;7.15;1.27;;;;;;;5.52;100.00;100407.97;2615986;36;20034;-59
2023/01/19 11:35:34;;;;;;;4.13;1.00;;;;;;;5.53;100.00;100408.81;2615547;36;20544;-59
2023/01/19 11:38:17;;;;;;;2.97;0.93;;;;;;;5.71;100.00;100406.56;2616181;36;20030;-60
2023/01/19 11:40:54;;;;;;;5.50;1.52;;;;;;;5.65;100.00;100412.38;2615689;36;20046;-59
2023/01/19 11:43:25;;;;;;;3.67;1.27;;;;;;;5.72;100.00;100416.28;2616382;36;20059;-60
2023/01/19 11:45:53;;;;;;;2.92;1.05;;;;;;;5.84;100.00;100420.69;2616648;36;20034;-58
2023/01/19 11:48:30;;;;;;;8.05;1.42;;;;;;;5.80;100.00;100419.25;2615861;36;20057;-59
2023/01/19 11:51:02;;;;;;;3.28;1.45;;;;;;;5.81;100.00;100420.91;2616707;36;20042;-59
2023/01/19 11:53:35;;;;;;;8.27;1.00;;;;;;;5.95;100.00;100417.22;2616291;36;20034;-59
2023/01/19 11:56:08;;;;;;;3.95;1.05;;;;;;;6.06;100.00;100421.75;2615823;36;20030;-59